createdAt,value
2022-10-31T00:00:21.058Z,101484.53
2022-10-31T00:00:42.745Z,101482.72
2022-10-31T00:01:12.193Z,101476.63
2022-10-31T00:01:36.576Z,101475.81
2022-10-31T00:01:58.233Z,101486.50
2022-10-31T00:02:19.897Z,101483.59
2022-10-31T00:02:42.511Z,101480.03
2022-10-31T00:03:04.104Z,101482.81
2022-10-31T00:03:27.132Z,101483.88
2022-10-31T00:03:48.895Z,101472.44
2022-10-31T00:04:10.466Z,101481.94
2022-10-31T00:04:33.508Z,101483.81
2022-10-31T00:04:55.103Z,101485.81
2022-10-31T00:05:16.811Z,101483.19
2022-10-31T00:05:43.335Z,101484.06
2022-10-31T00:06:05.031Z,101489.44
2022-10-31T00:06:28.113Z,101484.06
2022-10-31T00:06:49.687Z,101476.22
2022-10-31T00:07:11.275Z,101477.81
2022-10-31T00:07:32.839Z,101481.44
2022-10-31T00:07:55.413Z,101480.56
2022-10-31T00:08:17.937Z,101477.09
2022-10-31T00:08:39.564Z,101459.00
2022-10-31T00:09:03.646Z,101484.47
2022-10-31T00:09:26.282Z,101477.47
2022-10-31T00:09:47.878Z,101481.66
2022-10-31T00:10:10.163Z,101476.28
2022-10-31T00:10:31.708Z,101484.34
2022-10-31T00:10:53.301Z,101484.34
2022-10-31T00:11:15.811Z,101480.03
2022-10-31T00:11:37.382Z,101485.53
2022-10-31T00:11:58.951Z,101480.16
2022-10-31T00:12:20.555Z,101491.88
2022-10-31T00:12:43.090Z,101485.69
2022-10-31T00:13:04.638Z,101492.13
2022-10-31T00:13:26.265Z,101492.13
2022-10-31T00:13:48.009Z,101491.94
2022-10-31T00:14:10.690Z,101490.06
2022-10-31T00:14:32.286Z,101491.00
2022-10-31T00:14:54.027Z,101490.38
2022-10-31T00:15:15.588Z,101497.31
2022-10-31T00:15:38.258Z,101486.88
2022-10-31T00:16:00.852Z,101491.06
2022-10-31T00:16:24.688Z,101492.81
2022-10-31T00:16:46.306Z,101501.75
2022-10-31T00:17:08.819Z,101492.97
2022-10-31T00:17:30.437Z,101500.06
2022-10-31T00:17:52.014Z,101492.25
2022-10-31T00:18:13.614Z,101499.19
2022-10-31T00:18:35.189Z,101491.94
2022-10-31T00:18:59.302Z,101501.81
2022-10-31T00:19:20.856Z,101495.50
2022-10-31T00:19:42.417Z,101492.13
2022-10-31T00:20:04.718Z,101489.03
2022-10-31T00:20:27.253Z,101498.91
2022-10-31T00:20:50.118Z,101490.19
2022-10-31T00:21:11.723Z,101493.69
2022-10-31T00:21:33.549Z,101486.56
2022-10-31T00:21:56.448Z,101493.59
2022-10-31T00:22:17.997Z,101484.69
2022-10-31T00:22:39.611Z,101496.38
2022-10-31T00:23:02.083Z,101488.38
2022-10-31T00:23:23.622Z,101490.25
2022-10-31T00:23:46.167Z,101499.06
2022-10-31T00:24:08.266Z,101496.38
2022-10-31T00:24:29.865Z,101493.75
2022-10-31T00:24:51.440Z,101487.28
2022-10-31T00:25:14.202Z,101498.03
2022-10-31T00:25:38.325Z,101496.22
2022-10-31T00:26:01.790Z,101492.00
2022-10-31T00:26:23.366Z,101492.81
2022-10-31T00:26:45.859Z,101489.25
2022-10-31T00:27:07.494Z,101487.50
2022-10-31T00:27:29.042Z,101489.25
2022-10-31T00:27:50.777Z,101490.13
2022-10-31T00:28:12.972Z,101491.94
2022-10-31T00:28:35.861Z,101488.63
2022-10-31T00:28:57.952Z,101490.19
2022-10-31T00:29:19.562Z,101488.44
2022-10-31T00:29:41.168Z,101487.91
2022-10-31T00:30:04.205Z,101479.41
2022-10-31T00:30:25.908Z,101496.19
2022-10-31T00:30:47.564Z,101492.53
2022-10-31T00:31:11.074Z,101490.72
2022-10-31T00:31:33.823Z,101481.22
2022-10-31T00:31:55.935Z,101493.50
2022-10-31T00:32:17.560Z,101490.03
2022-10-31T00:32:39.183Z,101480.34
2022-10-31T00:33:02.124Z,101485.66
2022-10-31T00:33:24.879Z,101481.22
2022-10-31T00:33:46.825Z,101482.00
2022-10-31T00:34:08.430Z,101480.34
2022-10-31T00:34:31.375Z,101486.59
2022-10-31T00:34:56.168Z,101472.28
2022-10-31T00:35:18.284Z,101466.97
2022-10-31T00:35:40.350Z,101480.19
2022-10-31T00:36:03.706Z,101469.44
2022-10-31T00:36:26.228Z,101471.16
2022-10-31T00:36:48.044Z,101462.91
2022-10-31T00:37:09.689Z,101471.03
2022-10-31T00:37:31.333Z,101468.28
2022-10-31T00:37:54.400Z,101472.66
2022-10-31T00:38:17.124Z,101471.78
2022-10-31T00:38:38.700Z,101477.06
2022-10-31T00:39:00.482Z,101476.28
2022-10-31T00:39:22.068Z,101476.28
2022-10-31T00:39:46.071Z,101481.66
2022-10-31T00:40:09.034Z,101483.72
2022-10-31T00:40:30.639Z,101488.13
2022-10-31T00:40:52.231Z,101492.41
2022-10-31T00:41:16.930Z,101492.41
2022-10-31T00:41:38.501Z,101501.34
2022-10-31T00:42:05.538Z,101504.09
2022-10-31T00:42:27.163Z,101498.00
2022-10-31T00:42:49.772Z,101498.03
2022-10-31T00:43:38.097Z,101505.53
2022-10-31T00:43:59.671Z,101506.56
2022-10-31T00:44:22.210Z,101504.88
2022-10-31T00:44:43.808Z,101505.75
2022-10-31T00:45:06.058Z,101502.13
2022-10-31T00:45:27.692Z,101508.44
2022-10-31T00:45:50.302Z,101502.13
2022-10-31T00:46:13.037Z,101515.63
2022-10-31T00:46:34.632Z,101510.19
2022-10-31T00:46:56.216Z,101506.50
2022-10-31T00:47:17.815Z,101516.19
2022-10-31T00:47:41.507Z,101503.72
2022-10-31T00:48:03.560Z,101512.81
2022-10-31T00:48:25.807Z,101512.56
2022-10-31T00:48:48.213Z,101514.31
2022-10-31T00:49:10.795Z,101523.16
2022-10-31T00:49:32.366Z,101507.91
2022-10-31T00:49:53.912Z,101514.16
2022-10-31T00:50:15.790Z,101509.81
2022-10-31T00:50:38.970Z,101509.97
2022-10-31T00:51:00.676Z,101512.88
2022-10-31T00:51:23.650Z,101509.69
2022-10-31T00:51:45.221Z,101518.41
2022-10-31T00:52:07.982Z,101517.44
2022-10-31T00:52:29.575Z,101519.19
2022-10-31T00:52:51.780Z,101522.81
2022-10-31T00:53:13.910Z,101519.28
2022-10-31T00:53:35.776Z,101516.44
2022-10-31T00:53:58.730Z,101519.06
2022-10-31T00:54:20.286Z,101517.22
2022-10-31T00:54:43.099Z,101518.94
2022-10-31T00:55:05.267Z,101516.19
2022-10-31T00:55:27.087Z,101510.84
2022-10-31T00:55:49.905Z,101522.28
2022-10-31T00:56:11.508Z,101517.00
2022-10-31T00:56:33.078Z,101514.31
2022-10-31T00:56:55.504Z,101514.38
2022-10-31T00:57:18.042Z,101511.63
2022-10-31T00:57:39.633Z,101511.63
2022-10-31T00:58:01.667Z,101512.50
2022-10-31T00:58:23.613Z,101515.19
2022-10-31T00:58:46.234Z,101515.97
2022-10-31T00:59:07.842Z,101515.94
2022-10-31T00:59:30.581Z,101515.00
2022-10-31T00:59:52.156Z,101514.13
2022-10-31T01:00:14.688Z,101517.88
2022-10-31T01:00:37.606Z,101513.28
2022-10-31T01:00:59.277Z,101515.19
2022-10-31T01:01:22.469Z,101517.78
2022-10-31T01:01:44.859Z,101514.16
2022-10-31T01:02:07.687Z,101513.25
2022-10-31T01:02:29.753Z,101507.00
2022-10-31T01:02:51.417Z,101515.09
2022-10-31T01:03:13.255Z,101516.91
2022-10-31T01:03:39.472Z,101511.06
2022-10-31T01:04:05.015Z,101520.63
2022-10-31T01:04:28.436Z,101508.22
2022-10-31T01:04:51.702Z,101511.72
2022-10-31T01:05:14.787Z,101501.31
2022-10-31T01:05:36.320Z,101520.00
2022-10-31T01:06:00.147Z,101522.59
2022-10-31T01:06:24.312Z,101513.91
2022-10-31T01:06:45.899Z,101511.22
2022-10-31T01:07:07.882Z,101516.38
2022-10-31T01:07:29.514Z,101511.75
2022-10-31T01:07:51.278Z,101511.75
2022-10-31T01:08:13.848Z,101510.84
2022-10-31T01:08:39.368Z,101516.91
2022-10-31T01:09:01.027Z,101516.91
2022-10-31T01:09:23.963Z,101503.56
2022-10-31T01:09:45.567Z,101502.59
2022-10-31T01:10:08.375Z,101500.72
2022-10-31T01:10:30.021Z,101497.03
2022-10-31T01:11:00.463Z,101504.31
2022-10-31T01:11:24.734Z,101498.88
2022-10-31T01:11:46.585Z,101497.16
2022-10-31T01:12:08.408Z,101488.91
2022-10-31T01:12:30.064Z,101486.22
2022-10-31T01:12:53.578Z,101492.41
2022-10-31T01:13:17.628Z,101491.47
2022-10-31T01:13:40.686Z,101492.47
2022-10-31T01:14:02.261Z,101492.63
2022-10-31T01:14:26.520Z,101502.41
2022-10-31T01:14:49.812Z,101499.81
2022-10-31T01:15:16.638Z,101490.03
2022-10-31T01:15:38.237Z,101491.78
2022-10-31T01:16:05.883Z,101491.78
2022-10-31T01:16:30.613Z,101487.31
2022-10-31T01:16:52.993Z,101493.50
2022-10-31T01:17:22.443Z,101488.97
2022-10-31T01:17:44.567Z,101492.47
2022-10-31T01:18:07.308Z,101489.78
2022-10-31T01:18:33.345Z,101488.97
2022-10-31T01:18:58.849Z,101486.38
2022-10-31T01:19:27.834Z,101489.84
2022-10-31T01:19:55.925Z,101484.56
2022-10-31T01:20:25.443Z,101491.53
2022-10-31T01:20:59.364Z,101459.94
2022-10-31T01:21:24.703Z,101487.97
2022-10-31T01:21:46.298Z,101479.03
2022-10-31T01:22:08.010Z,101483.41
2022-10-31T01:22:29.578Z,101487.03
2022-10-31T01:22:54.056Z,101484.56
2022-10-31T01:23:16.529Z,101475.53
2022-10-31T01:23:39.365Z,101481.03
2022-10-31T01:24:02.891Z,101482.84
2022-10-31T01:24:24.897Z,101480.19
2022-10-31T01:24:46.500Z,101484.59
2022-10-31T01:25:10.870Z,101489.16
2022-10-31T01:25:32.482Z,101481.06
2022-10-31T01:26:06.140Z,101482.78
2022-10-31T01:26:31.572Z,101472.34
2022-10-31T01:26:53.175Z,101485.44
2022-10-31T01:27:14.902Z,101479.22
2022-10-31T01:27:36.562Z,101480.91
2022-10-31T01:27:58.497Z,101480.06
2022-10-31T01:28:21.278Z,101482.78
2022-10-31T01:28:48.648Z,101472.03
2022-10-31T01:29:55.526Z,101481.78
2022-10-31T01:30:17.382Z,101481.94
2022-10-31T01:30:38.930Z,101479.31
2022-10-31T01:31:05.039Z,101484.59
2022-10-31T01:31:29.701Z,101475.84
2022-10-31T01:31:51.405Z,101483.81
2022-10-31T01:32:13.015Z,101479.41
2022-10-31T01:32:34.853Z,101472.22
2022-10-31T01:32:59.312Z,101482.00
2022-10-31T01:33:21.213Z,101477.59
2022-10-31T01:33:42.921Z,101481.06
2022-10-31T01:34:04.863Z,101476.94
2022-10-31T01:34:27.701Z,101473.22
2022-10-31T01:34:49.838Z,101474.91
2022-10-31T01:35:11.648Z,101476.56
2022-10-31T01:35:33.328Z,101475.69
2022-10-31T01:35:54.931Z,101475.75
2022-10-31T01:36:19.751Z,101480.19
2022-10-31T01:36:43.880Z,101472.09
2022-10-31T01:37:05.438Z,101473.00
2022-10-31T01:37:27.531Z,101475.53
2022-10-31T01:37:50.178Z,101469.44
2022-10-31T01:38:11.843Z,101473.84
2022-10-31T01:38:33.408Z,101470.28
2022-10-31T01:38:57.988Z,101468.50
2022-10-31T01:39:20.139Z,101465.97
2022-10-31T01:39:42.824Z,101465.81
2022-10-31T01:40:05.521Z,101479.25
2022-10-31T01:40:30.187Z,101473.88
2022-10-31T01:40:52.087Z,101460.66
2022-10-31T01:41:16.165Z,101474.78
2022-10-31T01:41:41.396Z,101476.41
2022-10-31T01:42:03.773Z,101477.28
2022-10-31T01:42:27.754Z,101468.34
2022-10-31T01:42:50.263Z,101472.97
2022-10-31T01:43:14.115Z,101466.72
2022-10-31T01:43:48.746Z,101466.72
2022-10-31T01:44:48.872Z,101466.66
2022-10-31T01:45:11.176Z,101464.06
2022-10-31T01:45:32.930Z,101459.63
2022-10-31T01:45:55.613Z,101471.34
2022-10-31T01:46:21.650Z,101465.16
2022-10-31T01:46:47.730Z,101458.19
2022-10-31T01:47:16.470Z,101454.59
2022-10-31T01:47:44.289Z,101459.16
2022-10-31T01:48:07.223Z,101464.34
2022-10-31T01:48:29.127Z,101462.47
2022-10-31T01:48:52.052Z,101465.00
2022-10-31T01:49:17.866Z,101455.47
2022-10-31T01:49:44.408Z,101468.78
2022-10-31T01:50:14.767Z,101466.91
2022-10-31T01:50:39.265Z,101465.16
2022-10-31T01:51:01.313Z,101460.72
2022-10-31T01:51:26.890Z,101461.66
2022-10-31T01:51:56.079Z,101465.31
2022-10-31T01:52:25.153Z,101457.50
2022-10-31T01:52:50.511Z,101467.13
2022-10-31T01:53:14.529Z,101465.31
2022-10-31T01:53:37.136Z,101463.50
2022-10-31T01:54:02.695Z,101463.50
2022-10-31T01:54:28.440Z,101453.94
2022-10-31T01:54:53.881Z,101461.84
2022-10-31T01:55:23.190Z,101458.19
2022-10-31T01:55:47.899Z,101447.41
2022-10-31T01:56:12.574Z,101459.78
2022-10-31T01:56:39.286Z,101446.44
2022-10-31T01:57:03.594Z,101451.91
2022-10-31T01:57:26.767Z,101449.09
2022-10-31T01:57:52.739Z,101452.78
2022-10-31T01:58:20.254Z,101443.72
2022-10-31T01:58:43.023Z,101450.91
2022-10-31T01:59:07.504Z,101457.28
2022-10-31T01:59:33.762Z,101454.59
2022-10-31T02:00:01.419Z,101443.97
2022-10-31T02:00:23.339Z,101446.59
2022-10-31T02:00:50.013Z,101447.41
2022-10-31T02:01:13.232Z,101442.16
2022-10-31T02:01:36.212Z,101455.53
2022-10-31T02:01:58.060Z,101453.78
2022-10-31T02:02:20.409Z,101457.41
2022-10-31T02:02:43.261Z,101455.81
2022-10-31T02:03:06.373Z,101453.94
2022-10-31T02:03:30.164Z,101446.66
2022-10-31T02:03:52.276Z,101455.75
2022-10-31T02:04:18.067Z,101458.44
2022-10-31T02:04:42.031Z,101459.31
2022-10-31T02:05:07.437Z,101453.19
2022-10-31T02:05:31.288Z,101448.84
2022-10-31T02:05:55.352Z,101449.63
2022-10-31T02:06:28.645Z,101455.09
2022-10-31T02:06:57.323Z,101447.91
2022-10-31T02:07:24.725Z,101452.31
2022-10-31T02:07:52.791Z,101435.00
2022-10-31T02:08:21.283Z,101441.91
2022-10-31T02:08:45.349Z,101441.91
2022-10-31T02:09:07.675Z,101445.53
2022-10-31T02:09:31.656Z,101443.66
2022-10-31T02:09:55.716Z,101442.78
2022-10-31T02:10:20.061Z,101440.09
2022-10-31T02:10:44.143Z,101447.09
2022-10-31T02:11:07.275Z,101448.94
2022-10-31T02:11:31.258Z,101442.63
2022-10-31T02:11:55.602Z,101436.44
2022-10-31T02:12:18.464Z,101451.47
2022-10-31T02:12:41.683Z,101445.38
2022-10-31T02:13:05.446Z,101445.31
2022-10-31T02:13:30.355Z,101447.09
2022-10-31T02:13:52.252Z,101446.25
2022-10-31T02:14:14.429Z,101447.09
2022-10-31T02:14:37.265Z,101438.28
2022-10-31T02:15:00.358Z,101445.38
2022-10-31T02:15:22.983Z,101451.59
2022-10-31T02:15:46.741Z,101452.47
2022-10-31T02:16:10.794Z,101449.03
2022-10-31T02:16:32.393Z,101439.44
2022-10-31T02:16:55.290Z,101443.78
2022-10-31T02:17:16.948Z,101444.66
2022-10-31T02:17:38.641Z,101438.56
2022-10-31T02:18:01.172Z,101448.44
2022-10-31T02:18:26.138Z,101445.69
2022-10-31T02:18:47.910Z,101449.31
2022-10-31T02:19:13.221Z,101451.19
2022-10-31T02:19:42.901Z,101449.44
2022-10-31T02:20:15.390Z,101454.81
2022-10-31T02:20:46.762Z,101454.69
2022-10-31T02:21:16.090Z,101453.81
2022-10-31T02:21:52.090Z,101459.81
2022-10-31T02:22:28.389Z,101450.09
2022-10-31T02:23:22.935Z,101466.19
2022-10-31T02:24:18.122Z,101468.88
2022-10-31T02:24:49.554Z,101468.25
2022-10-31T02:25:34.156Z,101453.09
2022-10-31T02:26:19.064Z,101456.44
2022-10-31T02:27:24.119Z,101468.66
2022-10-31T02:28:13.476Z,101456.44
2022-10-31T02:29:08.740Z,101451.34
2022-10-31T02:30:10.512Z,101451.91
2022-10-31T02:30:46.172Z,101453.09
2022-10-31T02:31:28.110Z,101449.59
2022-10-31T02:32:01.590Z,101466.44
2022-10-31T02:32:28.587Z,101467.19
2022-10-31T02:33:01.348Z,101456.56
2022-10-31T02:33:32.293Z,101468.19
2022-10-31T02:33:58.726Z,101461.94
2022-10-31T02:34:26.789Z,101465.50
2022-10-31T02:34:56.801Z,101468.97
2022-10-31T02:35:33.162Z,101465.31
2022-10-31T02:36:04.900Z,101473.97
2022-10-31T02:36:34.826Z,101471.28
2022-10-31T02:37:01.122Z,101469.31
2022-10-31T02:37:29.036Z,101470.28
2022-10-31T02:37:59.490Z,101460.31
2022-10-31T02:38:32.370Z,101466.50
2022-10-31T02:39:08.872Z,101464.75
2022-10-31T02:39:43.888Z,101470.06
2022-10-31T02:40:18.445Z,101463.81
2022-10-31T02:41:07.675Z,101458.50
2022-10-31T02:41:41.585Z,101464.91
2022-10-31T02:42:12.154Z,101463.06
2022-10-31T02:42:41.227Z,101469.31
2022-10-31T02:43:08.844Z,101463.06
2022-10-31T02:43:37.328Z,101462.94
2022-10-31T02:44:06.623Z,101462.94
2022-10-31T02:44:37.568Z,101466.41
2022-10-31T02:45:06.548Z,101467.44
2022-10-31T02:45:32.337Z,101466.56
2022-10-31T02:46:00.260Z,101462.00
2022-10-31T02:46:33.070Z,101468.38
2022-10-31T02:47:00.364Z,101471.00
2022-10-31T02:47:26.785Z,101473.97
2022-10-31T02:47:51.059Z,101473.81
2022-10-31T02:48:20.187Z,101467.66
2022-10-31T02:48:45.375Z,101465.84
2022-10-31T02:49:12.722Z,101471.28
2022-10-31T02:49:40.226Z,101477.31
2022-10-31T02:50:05.513Z,101474.63
2022-10-31T02:50:30.875Z,101471.94
2022-10-31T02:50:56.748Z,101476.66
2022-10-31T02:51:19.907Z,101474.03
2022-10-31T02:51:44.762Z,101483.06
2022-10-31T02:52:15.106Z,101453.38
2022-10-31T02:52:37.003Z,101476.94
2022-10-31T02:53:05.774Z,101474.25
2022-10-31T02:53:37.153Z,101472.59
2022-10-31T02:54:00.427Z,101473.31
2022-10-31T02:54:26.535Z,101476.94
2022-10-31T02:55:10.395Z,101474.25
2022-10-31T02:56:00.547Z,101480.59
2022-10-31T02:56:26.586Z,101474.25
2022-10-31T02:56:51.336Z,101479.50
2022-10-31T02:57:30.975Z,101482.97
2022-10-31T02:57:59.765Z,101477.59
2022-10-31T02:58:29.058Z,101479.34
2022-10-31T02:59:01.088Z,101479.34
2022-10-31T02:59:27.802Z,101473.25
2022-10-31T02:59:58.544Z,101475.94
2022-10-31T03:00:22.278Z,101479.19
2022-10-31T03:02:13.634Z,101482.84
2022-10-31T03:03:04.228Z,101473.97
2022-10-31T03:03:34.936Z,101478.47
2022-10-31T03:04:24.678Z,101477.53
2022-10-31T03:05:03.123Z,101474.78
2022-10-31T03:05:36.450Z,101474.91
2022-10-31T03:06:05.441Z,101472.31
2022-10-31T03:06:31.751Z,101469.53
2022-10-31T03:06:57.965Z,101467.06
2022-10-31T03:07:29.924Z,101465.84
2022-10-31T03:08:01.986Z,101466.56
2022-10-31T03:08:30.944Z,101468.31
2022-10-31T03:09:04.149Z,101464.59
2022-10-31T03:09:32.467Z,101462.78
2022-10-31T03:10:04.756Z,101468.25
2022-10-31T03:10:35.798Z,101462.94
2022-10-31T03:11:00.211Z,101468.38
2022-10-31T03:11:30.326Z,101463.81
2022-10-31T03:11:59.179Z,101471.00
2022-10-31T03:12:27.503Z,101475.56
2022-10-31T03:13:02.295Z,101467.50
2022-10-31T03:13:33.661Z,101471.00
2022-10-31T03:14:00.450Z,101472.75
2022-10-31T03:14:27.800Z,101472.09
2022-10-31T03:14:58.844Z,101472.22
2022-10-31T03:15:25.056Z,101473.91
2022-10-31T03:15:51.295Z,101466.63
2022-10-31T03:16:16.956Z,101474.56
2022-10-31T03:16:48.111Z,101473.69
2022-10-31T03:17:19.622Z,101447.19
2022-10-31T03:17:51.644Z,101450.50
2022-10-31T03:18:17.974Z,101468.00
2022-10-31T03:18:42.938Z,101466.19
2022-10-31T03:19:09.155Z,101467.03
2022-10-31T03:19:33.965Z,101464.34
2022-10-31T03:20:00.211Z,101467.13
2022-10-31T03:20:26.657Z,101481.50
2022-10-31T03:20:55.452Z,101474.44
2022-10-31T03:21:22.452Z,101474.63
2022-10-31T03:21:47.099Z,101460.53
2022-10-31T03:22:16.311Z,101460.53
2022-10-31T03:22:43.863Z,101474.56
2022-10-31T03:23:09.359Z,101474.63
2022-10-31T03:23:32.947Z,101471.94
2022-10-31T03:23:57.683Z,101471.94
2022-10-31T03:24:23.398Z,101477.94
2022-10-31T03:24:47.654Z,101477.00
2022-10-31T03:25:10.675Z,101478.81
2022-10-31T03:25:33.938Z,101477.06
2022-10-31T03:25:56.773Z,101474.56
2022-10-31T03:26:23.008Z,101471.75
2022-10-31T03:26:50.611Z,101466.56
2022-10-31T03:27:15.858Z,101477.31
2022-10-31T03:27:42.191Z,101481.81
2022-10-31T03:28:06.993Z,101480.94
2022-10-31T03:28:34.812Z,101480.78
2022-10-31T03:29:05.861Z,101476.44
2022-10-31T03:29:32.303Z,101475.50
2022-10-31T03:29:57.026Z,101476.44
2022-10-31T03:30:18.849Z,101465.84
2022-10-31T03:30:54.089Z,101479.97
2022-10-31T03:31:19.238Z,101475.56
2022-10-31T03:31:49.921Z,101480.22
2022-10-31T03:32:15.357Z,101484.66
2022-10-31T03:32:43.986Z,101481.25
2022-10-31T03:33:09.860Z,101482.19
2022-10-31T03:33:36.661Z,101474.34
2022-10-31T03:34:02.329Z,101478.75
2022-10-31T03:34:25.138Z,101484.06
2022-10-31T03:34:48.311Z,101478.69
2022-10-31T03:35:14.254Z,101475.88
2022-10-31T03:35:37.468Z,101483.94
2022-10-31T03:36:05.458Z,101484.72
2022-10-31T03:36:29.110Z,101483.78
2022-10-31T03:36:56.141Z,101483.78
2022-10-31T03:37:20.210Z,101471.34
2022-10-31T03:37:44.400Z,101475.72
2022-10-31T03:38:10.390Z,101480.06
2022-10-31T03:38:33.299Z,101472.97
2022-10-31T03:38:57.723Z,101471.06
2022-10-31T03:39:23.514Z,101458.03
2022-10-31T03:39:49.269Z,101462.50
2022-10-31T03:40:15.358Z,101471.94
2022-10-31T03:40:40.637Z,101473.69
2022-10-31T03:41:07.568Z,101471.00
2022-10-31T03:41:33.961Z,101461.13
2022-10-31T03:41:58.458Z,101471.75
2022-10-31T03:42:24.752Z,101469.88
2022-10-31T03:42:55.342Z,101468.13
2022-10-31T03:43:53.735Z,101463.66
2022-10-31T03:44:19.860Z,101463.66
2022-10-31T03:44:54.589Z,101459.31
2022-10-31T03:45:21.768Z,101470.81
2022-10-31T03:45:47.609Z,101462.00
2022-10-31T03:46:10.662Z,101468.31
2022-10-31T03:46:32.413Z,101460.31
2022-10-31T03:46:56.005Z,101473.75
2022-10-31T03:47:17.928Z,101469.31
2022-10-31T03:47:45.994Z,101466.63
2022-10-31T03:48:07.806Z,101472.16
2022-10-31T03:48:29.959Z,101470.34
2022-10-31T03:48:51.858Z,101473.19
2022-10-31T03:49:16.854Z,101479.50
2022-10-31T03:49:39.476Z,101453.09
2022-10-31T03:50:01.261Z,101473.97
2022-10-31T03:50:26.668Z,101468.75
2022-10-31T03:51:00.568Z,101466.94
2022-10-31T03:51:27.743Z,101472.16
2022-10-31T03:51:55.898Z,101470.50
2022-10-31T03:52:26.418Z,101470.50
2022-10-31T03:52:53.479Z,101469.53
2022-10-31T03:53:22.145Z,101470.34
2022-10-31T03:53:48.674Z,101472.97
2022-10-31T03:54:21.985Z,101470.34
2022-10-31T03:54:46.059Z,101462.22
2022-10-31T03:55:13.835Z,101468.44
2022-10-31T03:55:41.967Z,101457.63
2022-10-31T03:56:11.912Z,101452.47
2022-10-31T03:56:38.476Z,101454.22
2022-10-31T03:57:07.802Z,101465.84
2022-10-31T03:57:37.558Z,101468.53
2022-10-31T03:58:05.029Z,101465.97
2022-10-31T03:58:32.183Z,101470.56
2022-10-31T03:59:01.115Z,101459.91
2022-10-31T03:59:29.124Z,101468.97
2022-10-31T03:59:54.186Z,101469.06
2022-10-31T04:00:17.603Z,101466.38
2022-10-31T04:00:45.483Z,101471.66
2022-10-31T04:01:10.858Z,101471.78
2022-10-31T04:01:38.309Z,101464.84
2022-10-31T04:02:06.422Z,101468.19
2022-10-31T04:02:33.157Z,101476.16
2022-10-31T04:03:03.263Z,101477.09
2022-10-31T04:03:30.374Z,101477.16
2022-10-31T04:03:56.630Z,101472.97
2022-10-31T04:04:20.979Z,101472.03
2022-10-31T04:04:45.229Z,101474.56
2022-10-31T04:05:09.973Z,101473.13
2022-10-31T04:05:33.112Z,101472.31
2022-10-31T04:06:01.997Z,101477.38
2022-10-31T04:06:26.256Z,101475.41
2022-10-31T04:06:51.625Z,101471.78
2022-10-31T04:07:15.452Z,101468.19
2022-10-31T04:07:40.992Z,101472.59
2022-10-31T04:08:06.931Z,101460.94
2022-10-31T04:08:32.642Z,101465.25
2022-10-31T04:08:58.410Z,101463.44
2022-10-31T04:09:22.632Z,101465.97
2022-10-31T04:09:47.358Z,101468.75
2022-10-31T04:10:13.300Z,101470.50
2022-10-31T04:10:39.712Z,101465.56
2022-10-31T04:11:03.571Z,101468.19
2022-10-31T04:11:32.047Z,101468.09
2022-10-31T04:12:17.198Z,101469.75
2022-10-31T04:12:58.876Z,101480.28
2022-10-31T04:13:29.822Z,101476.16
2022-10-31T04:14:01.392Z,101467.59
2022-10-31T04:14:27.135Z,101474.69
2022-10-31T04:14:51.489Z,101472.19
2022-10-31T04:15:14.126Z,101471.09
2022-10-31T04:15:37.674Z,101475.66
2022-10-31T04:15:59.786Z,101478.31
2022-10-31T04:16:24.472Z,101468.47
2022-10-31T04:16:46.696Z,101474.78
2022-10-31T04:17:13.961Z,101469.50
2022-10-31T04:17:41.840Z,101471.25
2022-10-31T04:18:07.069Z,101472.97
2022-10-31T04:18:28.668Z,101469.34
2022-10-31T04:18:50.456Z,101469.22
2022-10-31T04:19:12.844Z,101470.03
2022-10-31T04:19:36.297Z,101467.47
2022-10-31T04:20:00.275Z,101472.66
2022-10-31T04:20:31.291Z,101454.97
2022-10-31T04:21:02.117Z,101460.34
2022-10-31T04:21:30.146Z,101457.50
2022-10-31T04:21:52.438Z,101465.44
2022-10-31T04:22:14.488Z,101464.63
2022-10-31T04:22:37.149Z,101461.00
2022-10-31T04:22:58.890Z,101462.88
2022-10-31T04:23:23.288Z,101462.75
2022-10-31T04:23:46.476Z,101466.44
2022-10-31T04:24:17.709Z,101462.81
2022-10-31T04:24:40.911Z,101468.19
2022-10-31T04:25:04.361Z,101469.97
2022-10-31T04:25:25.922Z,101464.69
2022-10-31T04:25:50.447Z,101467.47
2022-10-31T04:26:13.847Z,101466.66
2022-10-31T04:26:38.833Z,101463.09
2022-10-31T04:27:00.427Z,101467.53
2022-10-31T04:27:24.902Z,101468.56
2022-10-31T04:27:47.651Z,101455.13
2022-10-31T04:28:09.282Z,101463.19
2022-10-31T04:28:31.060Z,101469.50
2022-10-31T04:28:52.765Z,101460.56
2022-10-31T04:29:14.366Z,101468.69
2022-10-31T04:29:37.015Z,101462.53
2022-10-31T04:29:58.619Z,101462.44
2022-10-31T04:30:20.212Z,101473.28
2022-10-31T04:30:41.886Z,101466.00
2022-10-31T04:31:04.548Z,101466.00
2022-10-31T04:31:26.724Z,101468.03
2022-10-31T04:31:48.326Z,101467.16
2022-10-31T04:32:11.358Z,101474.44
2022-10-31T04:32:34.117Z,101464.69
2022-10-31T04:32:56.011Z,101466.44
2022-10-31T04:33:17.830Z,101455.06
2022-10-31T04:33:41.520Z,101460.41
2022-10-31T04:34:03.784Z,101461.34
2022-10-31T04:34:25.524Z,101460.41
2022-10-31T04:34:48.155Z,101458.69
2022-10-31T04:35:09.703Z,101462.28
2022-10-31T04:35:31.297Z,101461.53
2022-10-31T04:35:52.871Z,101457.97
2022-10-31T04:36:15.499Z,101455.28
2022-10-31T04:36:37.702Z,101463.16
2022-10-31T04:36:59.257Z,101465.84
2022-10-31T04:37:20.858Z,101455.13
2022-10-31T04:37:43.390Z,101454.25
2022-10-31T04:38:04.993Z,101447.22
2022-10-31T04:38:28.835Z,101451.44
2022-10-31T04:38:50.583Z,101458.69
2022-10-31T04:39:27.107Z,101449.91
2022-10-31T04:40:22.088Z,101456.00
2022-10-31T04:40:53.352Z,101455.28
2022-10-31T04:41:33.267Z,101444.69
2022-10-31T04:41:57.676Z,101453.53
2022-10-31T04:42:20.800Z,101444.97
2022-10-31T04:42:42.425Z,101452.81
2022-10-31T04:43:04.924Z,101442.06
2022-10-31T04:43:27.316Z,101447.44
2022-10-31T04:43:49.936Z,101448.53
2022-10-31T04:44:12.116Z,101446.56
2022-10-31T04:44:33.684Z,101446.63
2022-10-31T04:44:56.573Z,101434.38
2022-10-31T04:45:21.313Z,101443.00
2022-10-31T04:45:46.047Z,101442.22
2022-10-31T04:46:08.541Z,101443.81
2022-10-31T04:46:30.843Z,101444.75
2022-10-31T04:46:54.597Z,101442.88
2022-10-31T04:47:17.487Z,101447.22
2022-10-31T04:47:39.287Z,101449.03
2022-10-31T04:48:02.051Z,101443.72
2022-10-31T04:48:27.615Z,101451.72
2022-10-31T04:48:49.628Z,101450.84
2022-10-31T04:49:12.065Z,101456.31
2022-10-31T04:49:33.619Z,101445.63
2022-10-31T04:49:56.133Z,101456.31
2022-10-31T04:50:17.898Z,101448.25
2022-10-31T04:50:40.570Z,101446.78
2022-10-31T04:51:03.365Z,101451.06
2022-10-31T04:51:25.963Z,101449.25
2022-10-31T04:51:47.936Z,101451.06
2022-10-31T04:52:09.549Z,101458.25
2022-10-31T04:52:31.215Z,101462.81
2022-10-31T04:52:52.796Z,101455.50